Terminal Aerodrome Forecast
Issued by NWS Dallas/Fort Worth, TX

Home | Current Version | Previous Version | Text Only | Print | Product List | Glossary On
Versions: 1 2 3 4 5 6 7 8 9 10 11 12 13 14 15 16 17 18 19 20 21 22 23 24 25
000
FTUS44 KFWD 251503 AAB
TAFACT
TAF AMD
KACT 251503Z 2515/2612 20006KT P6SM SCT150 BKN250
     FM252000 11006KT P6SM VCTS SCT060CB
     FM260000 10008KT P6SM VCSH SCT050 BKN100
     FM260200 14007KT P6SM BKN100
     FM261000 12003KT P6SM SCT100=

USA.gov is the U.S. government's official web portal to all federal, state and local government web resources and services.